createdAt,value
2019-02-24T19:14:33.532Z,16.90
2019-02-24T19:17:00.746Z,20.25
2019-02-24T19:19:27.946Z,20.05
2019-02-24T19:21:55.133Z,19.48
2019-02-24T19:24:22.335Z,21.62
2019-02-24T19:26:49.550Z,20.48
2019-02-24T19:29:16.771Z,19.07
2019-02-24T19:31:43.976Z,21.82
2019-02-24T19:34:12.679Z,21.60
2019-02-24T19:36:40.030Z,19.85
2019-02-24T19:39:07.250Z,20.85
2019-02-24T19:41:34.454Z,20.23
2019-02-24T19:44:01.661Z,21.00
2019-02-24T19:46:28.941Z,20.92
2019-02-24T19:48:56.226Z,19.57
2019-02-24T19:51:25.423Z,24.95
2019-02-24T19:53:52.818Z,22.13
2019-02-24T19:56:20.010Z,23.47
2019-02-24T19:58:49.079Z,21.25
2019-02-24T20:01:16.344Z,23.02
2019-02-24T20:03:43.551Z,20.82
2019-02-24T20:06:10.763Z,21.73
2019-02-24T20:08:38.000Z,19.73
2019-02-24T20:11:05.184Z,20.95
2019-02-24T20:13:32.385Z,21.73
2019-02-24T20:15:59.618Z,19.87
2019-02-24T20:18:26.877Z,21.25
2019-02-24T20:20:54.105Z,21.52
2019-02-24T20:23:21.289Z,20.88
2019-02-24T20:25:48.498Z,21.90
2019-02-24T20:28:15.790Z,20.55
2019-02-24T20:30:42.986Z,21.82
2019-02-24T20:33:10.362Z,21.00
2019-02-24T20:35:37.554Z,23.70
2019-02-24T20:38:04.746Z,20.12
2019-02-24T20:40:31.927Z,23.38
2019-02-24T20:42:59.130Z,27.40
2019-02-24T20:45:26.314Z,27.90
2019-02-24T20:47:53.534Z,31.30
2019-02-24T20:50:21.694Z,29.45
2019-02-24T20:52:48.922Z,30.32
2019-02-24T20:55:16.094Z,29.00
2019-02-24T20:57:43.302Z,32.17
2019-02-24T21:00:17.693Z,31.52
2019-02-24T21:02:45.824Z,29.30
2019-02-24T21:05:13.039Z,26.37
2019-02-24T21:07:40.474Z,26.40
2019-02-24T21:10:09.497Z,26.27
2019-02-24T21:12:36.834Z,27.82
2019-02-24T21:15:05.714Z,26.33
2019-02-24T21:17:32.923Z,25.05
2019-02-24T21:20:00.308Z,32.33
2019-02-24T21:22:27.646Z,27.22
2019-02-24T21:24:54.824Z,24.98
2019-02-24T21:27:22.029Z,26.70
2019-02-24T21:29:49.210Z,26.23
2019-02-24T21:32:16.504Z,25.43
2019-02-24T21:34:43.688Z,26.40
2019-02-24T21:37:10.886Z,24.63
2019-02-24T21:39:38.094Z,24.60
2019-02-24T21:42:05.342Z,23.05
2019-02-24T21:44:32.564Z,22.25
2019-02-24T21:46:59.823Z,25.20
2019-02-24T21:49:27.162Z,23.85
2019-02-24T21:51:54.416Z,26.12
2019-02-24T21:54:21.615Z,25.20
2019-02-24T21:56:48.916Z,25.23
2019-02-24T21:59:24.561Z,24.25
2019-02-24T22:02:00.104Z,25.10
2019-02-24T22:04:37.059Z,24.70
2019-02-24T22:07:14.333Z,26.07
2019-02-24T22:09:49.563Z,24.87
2019-02-24T22:12:30.246Z,23.65
2019-02-24T22:15:03.267Z,24.35
2019-02-24T22:17:38.894Z,23.02
2019-02-24T22:20:08.591Z,25.27
2019-02-24T22:22:35.784Z,29.25
2019-02-24T22:25:03.045Z,26.23
2019-02-24T22:27:30.247Z,24.45
2019-02-24T22:29:57.435Z,25.23
2019-02-24T22:32:24.621Z,23.57
2019-02-24T22:34:51.827Z,25.50
2019-02-24T22:37:19.092Z,26.75
2019-02-24T22:39:47.045Z,26.23
2019-02-24T22:42:14.227Z,24.63
2019-02-24T22:44:41.425Z,27.45
2019-02-24T22:47:08.620Z,26.15
2019-02-24T22:49:35.875Z,27.15
2019-02-24T22:52:03.054Z,24.20
2019-02-24T22:54:30.264Z,26.50
2019-02-24T22:56:57.446Z,22.87
2019-02-24T22:59:24.640Z,26.02
2019-02-24T23:01:51.950Z,26.97
2019-02-24T23:04:19.145Z,26.87
2019-02-24T23:06:46.621Z,24.90
2019-02-24T23:09:13.911Z,28.10
2019-02-24T23:11:41.109Z,24.02
2019-02-24T23:14:08.306Z,28.73
2019-02-24T23:16:35.697Z,25.00
2019-02-24T23:19:02.966Z,26.77
2019-02-24T23:21:30.164Z,29.52
2019-02-24T23:23:57.332Z,24.95
2019-02-24T23:26:24.710Z,26.57
2019-02-24T23:28:52.117Z,27.40
2019-02-24T23:31:19.367Z,26.55
2019-02-24T23:33:46.554Z,26.30
2019-02-24T23:36:13.749Z,25.88
2019-02-24T23:38:41.007Z,28.23
2019-02-24T23:41:08.269Z,24.72
2019-02-24T23:43:35.910Z,23.47
2019-02-24T23:46:03.225Z,26.95
2019-02-24T23:48:30.458Z,26.15
2019-02-24T23:50:57.659Z,24.55
2019-02-24T23:53:24.882Z,26.62
2019-02-24T23:55:52.060Z,24.35
2019-02-24T23:58:19.266Z,24.70
